createdAt,value
2019-05-10T00:04:48.986Z,43
2019-05-10T00:09:49.173Z,42.9
2019-05-10T00:14:50.984Z,42.9
2019-05-10T00:19:52.814Z,42.8
2019-05-10T00:25:02.719Z,42.7
2019-05-10T00:30:04.665Z,42.7
2019-05-10T00:35:06.482Z,42.6
2019-05-10T00:40:08.305Z,42.6
2019-05-10T00:45:10.116Z,42.5
2019-05-10T00:50:11.903Z,42.4
2019-05-10T00:55:18.715Z,42.4
2019-05-10T01:00:21.018Z,42.3
2019-05-10T01:05:22.831Z,42.2
2019-05-10T01:10:24.636Z,42.2
2019-05-10T01:15:26.413Z,42.1
2019-05-10T01:20:28.209Z,42.1
2019-05-10T01:25:34.948Z,42.1
2019-05-10T01:30:37.413Z,42
2019-05-10T01:35:39.153Z,41.9
2019-05-10T01:40:40.923Z,41.9
2019-05-10T01:45:42.649Z,41.8
2019-05-10T01:50:44.398Z,41.7
2019-05-10T01:55:51.899Z,41.7
2019-05-10T02:00:54.234Z,41.6
2019-05-10T02:05:56.019Z,41.6
2019-05-10T02:10:57.758Z,41.5
2019-05-10T02:15:59.502Z,41.4
2019-05-10T02:21:01.263Z,41.4
2019-05-10T02:26:09.274Z,41.4
2019-05-10T02:31:11.550Z,41.3
2019-05-10T02:36:13.290Z,41.2
2019-05-10T02:41:15.023Z,41.2
2019-05-10T02:46:16.767Z,41.1
2019-05-10T02:51:18.499Z,41.1
2019-05-10T02:56:30.165Z,41.1
2019-05-10T03:01:32.632Z,41
2019-05-10T03:06:34.397Z,40.9
2019-05-10T03:11:36.174Z,40.9
2019-05-10T03:16:37.939Z,40.8
2019-05-10T03:21:39.746Z,40.8
2019-05-10T03:26:50.581Z,40.7
2019-05-10T03:31:53.262Z,40.7
2019-05-10T03:36:55.027Z,40.6
2019-05-10T03:41:56.816Z,40.6
2019-05-10T03:46:58.597Z,40.5
2019-05-10T03:52:00.358Z,40.5
2019-05-10T03:57:12.701Z,40.4
2019-05-10T04:02:15.562Z,40.4
2019-05-10T04:07:17.323Z,40.3
2019-05-10T04:12:19.070Z,40.2
2019-05-10T04:17:20.838Z,40.2
2019-05-10T04:22:22.582Z,40.2
2019-05-10T04:27:31.915Z,40.1
2019-05-10T04:32:34.619Z,40.1
2019-05-10T04:37:36.359Z,40
2019-05-10T04:42:38.141Z,40
2019-05-10T04:47:39.877Z,39.9
2019-05-10T04:52:41.609Z,39.9
2019-05-10T04:57:50.254Z,39.8
2019-05-10T05:02:52.392Z,39.8
2019-05-10T05:07:54.099Z,39.7
2019-05-10T05:12:54.858Z,39.7
2019-05-10T05:17:56.530Z,39.7
2019-05-10T05:22:58.231Z,39.6
2019-05-10T05:28:07.749Z,39.6
2019-05-10T05:33:10.014Z,39.5
2019-05-10T05:38:11.744Z,39.5
2019-05-10T05:43:13.458Z,39.4
2019-05-10T05:48:15.937Z,39.4
2019-05-10T05:53:17.875Z,39.4
2019-05-10T05:58:26.388Z,39.3
2019-05-10T06:03:29.589Z,39.2
2019-05-10T06:08:31.668Z,39.2
2019-05-10T06:13:33.367Z,39.2
2019-05-10T06:18:35.065Z,39.1
2019-05-10T06:23:36.862Z,39.1
2019-05-10T06:34:10.369Z,39
2019-05-10T06:39:12.043Z,38.9
2019-05-10T06:44:13.728Z,38.9
2019-05-10T06:49:15.412Z,38.9
2019-05-10T06:54:17.091Z,38.8
2019-05-10T06:59:19.276Z,38.8
2019-05-10T07:04:21.277Z,38.7
2019-05-10T07:09:22.954Z,38.7
2019-05-10T07:14:27.081Z,38.7
2019-05-10T07:19:29.068Z,38.6
2019-05-10T07:24:30.855Z,38.6
2019-05-10T07:29:41.537Z,38.6
2019-05-10T07:34:47.992Z,38.5
2019-05-10T07:39:51.419Z,38.4
2019-05-10T07:44:53.100Z,38.4
2019-05-10T07:49:54.771Z,38.4
2019-05-10T07:54:56.436Z,38.4
2019-05-10T08:00:03.420Z,38.3
2019-05-10T08:05:10.678Z,38.2
2019-05-10T08:10:12.826Z,38.2
2019-05-10T08:15:14.501Z,38.2
2019-05-10T08:20:27.954Z,38.2
2019-05-10T08:30:50.685Z,38.1
2019-05-10T08:36:00.437Z,38.1
2019-05-10T08:41:03.694Z,38
2019-05-10T08:46:11.663Z,37.9
2019-05-10T08:51:13.668Z,37.9
2019-05-10T08:56:20.776Z,37.9
2019-05-10T09:01:30.032Z,37.9
2019-05-10T09:06:32.705Z,37.8
2019-05-10T09:11:34.451Z,37.7
2019-05-10T09:16:43.210Z,37.7
2019-05-10T09:21:49.436Z,37.7
2019-05-10T09:26:54.923Z,37.7
2019-05-10T09:31:57.173Z,37.6
2019-05-10T09:36:58.785Z,37.6
2019-05-10T09:42:06.109Z,37.6
2019-05-10T09:47:09.446Z,37.6
2019-05-10T09:52:13.015Z,37.5
2019-05-10T09:57:17.371Z,37.4
2019-05-10T10:02:19.137Z,37.4
2019-05-10T10:07:24.159Z,37.4
2019-05-10T10:12:28.594Z,37.4
2019-05-10T10:17:30.822Z,37.3
2019-05-10T10:22:32.624Z,37.2
2019-05-10T10:27:36.026Z,37.2
2019-05-10T10:32:37.910Z,37.2
2019-05-10T10:37:39.551Z,37.2
2019-05-10T10:42:41.139Z,37.1
2019-05-10T10:47:42.725Z,37.1
2019-05-10T10:52:44.289Z,37.1
2019-05-10T10:57:47.831Z,37.1
2019-05-10T11:02:51.809Z,37
2019-05-10T11:07:53.909Z,37
2019-05-10T11:12:56.167Z,36.9
2019-05-10T11:18:00.225Z,36.9
2019-05-10T11:23:02.094Z,36.9
2019-05-10T11:28:03.257Z,36.9
2019-05-10T11:33:04.906Z,36.8
2019-05-10T11:38:11.749Z,36.8
2019-05-10T11:43:17.268Z,36.7
2019-05-10T11:48:21.420Z,36.7
2019-05-10T11:53:23.924Z,36.7
2019-05-10T11:58:25.808Z,36.7
2019-05-10T12:03:27.439Z,36.6
2019-05-10T12:08:29.083Z,36.6
2019-05-10T12:13:32.666Z,36.6
2019-05-10T12:18:36.060Z,36.6
2019-05-10T12:23:46.567Z,36.5
2019-05-10T12:28:51.769Z,36.4
2019-05-10T12:33:53.384Z,36.4
2019-05-10T12:38:56.137Z,36.4
2019-05-10T12:44:03.769Z,36.4
2019-05-10T12:49:08.433Z,36.4
2019-05-10T12:54:11.260Z,36.3
2019-05-10T12:59:12.952Z,36.3
2019-05-10T13:04:16.932Z,36.2
2019-05-10T13:09:23.199Z,36.2
2019-05-10T13:14:39.925Z,36.2
2019-05-10T13:19:42.052Z,36.2
2019-05-10T13:24:43.889Z,36.1
2019-05-10T13:29:46.426Z,36.1
2019-05-10T13:34:49.720Z,36.1
2019-05-10T13:39:51.695Z,36.1
2019-05-10T13:44:53.289Z,36
2019-05-10T13:49:54.907Z,36
2019-05-10T13:54:56.576Z,35.9
2019-05-10T14:00:01.590Z,35.9
2019-05-10T14:05:03.761Z,35.9
2019-05-10T14:10:05.372Z,35.9
2019-05-10T14:15:11.265Z,35.9
2019-05-10T14:20:29.571Z,35.8
2019-05-10T14:25:36.105Z,35.8
2019-05-10T14:30:38.396Z,35.7
2019-05-10T14:35:39.999Z,35.7
2019-05-10T14:40:41.595Z,35.6
2019-05-10T14:45:43.196Z,35.6
2019-05-10T14:50:46.620Z,35.6
2019-05-10T14:55:48.442Z,35.6
2019-05-10T15:00:50.036Z,35.6
2019-05-10T15:05:54.898Z,35.5
2019-05-10T15:10:59.184Z,35.5
2019-05-10T15:16:00.775Z,35.5
2019-05-10T15:21:02.384Z,37.9
2019-05-10T15:26:11.424Z,39.2
2019-05-10T15:31:12.773Z,40.3
2019-05-10T15:36:14.556Z,41.2
2019-05-10T15:41:16.791Z,42
2019-05-10T15:46:22.650Z,42.7
2019-05-10T15:51:35.144Z,43.4
2019-05-10T15:58:36.107Z,44.3
2019-05-10T16:03:37.665Z,44.8
2019-05-10T16:08:37.886Z,45.2
2019-05-10T16:13:38.207Z,45.5
2019-05-10T16:18:39.722Z,45.8
2019-05-10T16:23:41.284Z,46
2019-05-10T16:28:42.132Z,46
2019-05-10T16:33:42.397Z,46.1
2019-05-10T16:38:42.641Z,46.1
2019-05-10T16:43:42.906Z,46.4
2019-05-10T16:48:43.195Z,46.8
2019-05-10T16:53:45.650Z,47.1
2019-05-10T16:58:47.461Z,47.3
2019-05-10T17:03:50.571Z,47.5
2019-05-10T17:08:52.498Z,47.6
2019-05-10T17:13:55.424Z,47.7
2019-05-10T17:18:57.212Z,47.7
2019-05-10T17:23:57.460Z,47.8
2019-05-10T17:28:57.708Z,47.9
2019-05-10T17:33:57.974Z,47.9
2019-05-10T17:38:58.243Z,47.9
2019-05-10T17:43:58.513Z,47.9
2019-05-10T17:48:58.816Z,48
2019-05-10T17:54:01.312Z,48
2019-05-10T17:59:05.647Z,48
2019-05-10T18:04:06.380Z,47.9
2019-05-10T18:09:06.677Z,48.1
2019-05-10T18:14:06.994Z,48.1
2019-05-10T18:19:08.245Z,48.1
2019-05-10T18:24:08.534Z,48
2019-05-10T18:29:08.855Z,48
2019-05-10T18:34:09.146Z,48.1
2019-05-10T18:39:15.343Z,48.1
2019-05-10T18:44:16.459Z,48.1
2019-05-10T18:49:16.754Z,48.1
2019-05-10T18:54:17.061Z,48.3
2019-05-10T18:59:17.618Z,48.3
2019-05-10T19:04:17.977Z,48.2
2019-05-10T19:09:18.334Z,48.2
2019-05-10T19:14:23.766Z,48.2
2019-05-10T19:19:24.491Z,48.1
2019-05-10T19:24:30.260Z,48.1
2019-05-10T19:29:30.805Z,48.1
2019-05-10T19:34:31.108Z,48
2019-05-10T19:39:31.413Z,48
2019-05-10T19:44:34.533Z,47.9
2019-05-10T19:49:35.128Z,47.9
2019-05-10T19:54:35.374Z,47.9
2019-05-10T19:59:35.664Z,47.8
2019-05-10T20:04:35.919Z,47.8
2019-05-10T20:09:36.208Z,47.7
2019-05-10T20:14:36.474Z,47.7
2019-05-10T20:19:36.714Z,47.7
2019-05-10T20:24:36.976Z,47.6
2019-05-10T20:29:37.243Z,47.6
2019-05-10T20:34:37.883Z,47.6
2019-05-10T20:39:38.176Z,47.5
2019-05-10T20:44:38.447Z,47.5
2019-05-10T20:49:38.723Z,47.4
2019-05-10T20:54:38.976Z,47.4
2019-05-10T20:59:39.235Z,47.4
2019-05-10T21:04:39.472Z,47.3
2019-05-10T21:09:39.731Z,47.2
2019-05-10T21:14:39.996Z,47.2
2019-05-10T21:19:40.238Z,47.2
2019-05-10T21:24:40.492Z,47.2
2019-05-10T21:29:40.726Z,47.1
2019-05-10T21:34:40.952Z,47.1
2019-05-10T21:39:41.185Z,47.1
2019-05-10T21:44:41.451Z,47
2019-05-10T21:49:41.722Z,46.9
2019-05-10T21:54:41.968Z,46.9
2019-05-10T21:59:42.247Z,46.9
2019-05-10T22:04:42.537Z,46.8
2019-05-10T22:09:42.828Z,46.8
2019-05-10T22:14:43.098Z,46.7
2019-05-10T22:19:43.362Z,46.7
2019-05-10T22:24:43.614Z,46.7
2019-05-10T22:29:43.875Z,46.6
2019-05-10T22:34:44.130Z,46.6
2019-05-10T22:39:44.393Z,46.6
2019-05-10T22:44:44.650Z,46.5
2019-05-10T22:49:44.935Z,46.4
2019-05-10T22:54:45.213Z,46.4
2019-05-10T22:59:45.456Z,46.3
2019-05-10T23:04:45.704Z,46.2
2019-05-10T23:09:45.943Z,46.2
2019-05-10T23:14:46.200Z,46.2
2019-05-10T23:19:46.464Z,46.1
2019-05-10T23:24:46.685Z,46.1
2019-05-10T23:29:46.898Z,46.1
2019-05-10T23:34:47.143Z,46
2019-05-10T23:39:47.387Z,45.9
2019-05-10T23:44:47.642Z,45.9
2019-05-10T23:49:47.905Z,45.9
2019-05-10T23:54:48.140Z,45.8
2019-05-10T23:59:48.367Z,45.8
